• Join FlightAware (Why Join?)
  • Login
  • US Flag 
10:29PM EDT


 

Airport Tracker/Info


-or-


 

Live Flight TrackerFlight Track Log ✈ SWA3943 ✈ 15-Apr-2013 ✈ KCMH - KBWI

Flight Track Log - Related Links

Times and Time Zones

All times are in EDT time to prevent confusion due to time zone crossing. See the SWA3943 flight status page for this flight to view local times or setup timezone preferences in your user account.

Time Position Orientation Groundspeed Altitude Reporting Facility
EDT Latitude Longitude Course Direction KTS MPH feet Rate Location/Type
08:43PM 40.0008 -82.9467 279° West 192 221 3,300  Level Indianapolis Center
08:43PM 40.0019 -82.9808 272° West 220 253 4,100 1,620 Climbing Indianapolis Center
08:44PM 39.9747 -83.0017 210° Southwest 208 239 5,000 2,580 Climbing Indianapolis Center
08:45PM 39.9308 -82.9172 124° Southeast 286 329 8,700 3,420 Climbing Indianapolis Center
08:46PM 39.9286 -82.7986 91° East 324 373 12,100 3,600 Climbing Indianapolis Center
08:47PM 39.9375 -82.6611 85° East 372 428 16,200 4,020 Climbing Indianapolis Center
08:48PM 39.9444 -82.5164 86° East 393 452 20,400 3,720 Climbing Indianapolis Center
08:49PM 39.9514 -82.3694 86° East 401 461 23,900 3,000 Climbing Indianapolis Center
08:50PM 39.9589 -82.2092 86° East 434 499 26,600 2,400 Climbing Indianapolis Center
08:51PM 39.9672 -82.0414 86° East 457 526 28,900 1,140 Climbing Indianapolis Center
08:52PM 39.9747 -81.8600 87° East 492 566 29,000  Climbing Indianapolis Center
08:53PM 39.9558 -81.6775 98° East 504 580 29,000  Level Indianapolis Center
08:54PM 39.9378 -81.4939 97° East 506 582 29,000  Level Indianapolis Center
08:55PM 39.9192 -81.3106 97° East 506 582 29,000  Level Indianapolis Center
08:56PM 39.8992 -81.1275 98° East 507 583 29,000  Level Indianapolis Center
08:57PM 39.8831 -80.9592 97° East 501 577 29,000  Level Cleveland Center
08:58PM 39.8628 -80.7750 98° East 501 577 29,000  Level Cleveland Center
08:59PM 39.8442 -80.5911 97° East 501 577 29,000  Level Cleveland Center
09:01PM 39.7964 -80.2017 99° East 518 596 29,000  Level Washington Center
09:02PM 39.7761 -80.0222 98° East 507 583 29,000  Level Washington Center
09:03PM 39.7556 -79.8428 98° East 502 578 29,000  Level Washington Center
09:04PM 39.7311 -79.6442 99° East 502 578 29,000  Level Washington Center
09:05PM 39.7097 -79.4678 99° East 502 578 29,000 -60 Level Washington Center
09:06PM 39.6883 -79.2911 99° East 502 578 28,900 -1,860 Descending Washington Center
09:07PM 39.6664 -79.1150 99° East 502 578 25,300 -1,980 Descending Washington Center
09:08PM 39.6358 -78.9489 103° East 483 556 25,000 -180 Descending Washington Center
09:09PM 39.5958 -78.8044 110° East 478 550 25,000 -300 Level Washington Center
09:10PM 39.5606 -78.6414 106° East 473 544 24,400 -1,800 Descending Washington Center
09:11PM 39.5247 -78.4836 106° East 467 537 21,500 -2,820 Descending Washington Center
09:12PM 39.4892 -78.3183 106° East 450 518 18,800 -2,880 Descending Washington Center
09:13PM 39.4589 -78.1775 106° East 424 488 15,800 -1,920 Descending Washington Center
09:14PM 39.4264 -78.0364 107° East 413 475 15,000 -420 Descending Washington Center
09:15PM 39.4103 -77.8964 98° East 402 463 15,000  Level Washington Center
09:16PM 39.4214 -77.7542 84° East 389 448 15,000 -480 Level Washington Center
09:17PM 39.4319 -77.6147 84° East 384 442 14,100 -1,680 Descending Washington Center
09:18PM 39.4406 -77.4806 85° East 384 442 11,700 -1,560 Descending Washington Center
09:19PM 39.4464 -77.3625 86° East 359 413 11,000 -420 Descending Washington Center
09:20PM 39.4500 -77.2833 87° East 307 353 11,000 -660 Level Potomac TRACON
09:21PM 39.4667 -77.1833 78° East 302 348 9,900 -1,380 Descending Potomac TRACON
09:22PM 39.4667 -77.0833 90° East 294 338 8,300 -1,620 Descending Potomac TRACON
09:23PM 39.4500 -76.9833 102° East 281 323 6,700 -1,680 Descending Potomac TRACON
09:24PM 39.4000 -76.9167 134° Southeast 263 303 5,000 -1,680 Descending Potomac TRACON
09:25PM 39.3333 -76.9167 180° South 231 266 3,400 -1,020 Descending Potomac TRACON
09:26PM 39.2667 -76.9000 169° South 197 227 3,000 -420 Descending Potomac TRACON
09:27PM 39.2333 -76.9000 180° South 159 183 2,600 -300 Descending Potomac TRACON
09:28PM 39.2000 -76.8667 142° Southeast 156 180 2,500 -360 Descending Potomac TRACON
09:29PM 39.1833 -76.8167 113° Southeast 160 184 2,000 -660 Descending Potomac TRACON
09:30PM 39.1833 -76.7500 90° East 150 173 1,200 -780 Descending Potomac TRACON
09:31PM 39.1833 -76.7000 90° East 122 140 400 -780 Descending Potomac TRACON
09:33PM 39.1667 -76.6667 98° East  Level FlightAware Approximate
09:40PM 39.1754 -76.6683 98° East  Level Estimated
09:41PM 39.1754 -76.6683 98° East  Level Estimated